createdAt,value
2023-02-21T00:01:51.863Z,122.35
2023-02-21T00:04:37.518Z,123.32
2023-02-21T00:07:23.417Z,121.43
2023-02-21T00:10:08.970Z,122.40
2023-02-21T00:12:54.349Z,123.50
2023-02-21T00:15:45.189Z,123.38
2023-02-21T00:18:30.633Z,117.07
2023-02-21T00:21:16.080Z,120.68
2023-02-21T00:24:01.761Z,119.53
2023-02-21T00:26:47.062Z,123.25
2023-02-21T00:29:32.295Z,122.60
2023-02-21T00:32:19.630Z,122.70
2023-02-21T00:35:05.201Z,126.72
2023-02-21T00:37:50.669Z,123.07
2023-02-21T00:40:36.368Z,126.95
2023-02-21T00:43:21.648Z,120.35
2023-02-21T00:46:07.145Z,128.65
2023-02-21T00:48:54.005Z,125.13
2023-02-21T00:51:39.591Z,123.97
2023-02-21T00:54:24.962Z,124.95
2023-02-21T00:57:10.855Z,124.38
2023-02-21T00:59:56.391Z,126.45
2023-02-21T01:02:41.690Z,125.97
2023-02-21T01:05:28.976Z,122.00
2023-02-21T01:08:14.846Z,126.50
2023-02-21T01:11:00.557Z,127.00
2023-02-21T01:13:46.663Z,126.57
2023-02-21T01:16:32.457Z,119.82
2023-02-21T01:19:18.145Z,122.55
2023-02-21T01:22:05.293Z,122.95
2023-02-21T01:24:51.172Z,120.70
2023-02-21T01:27:37.160Z,125.45
2023-02-21T01:30:23.437Z,119.82
2023-02-21T01:33:09.195Z,119.22
2023-02-21T01:35:54.883Z,121.75
2023-02-21T01:38:42.216Z,123.25
2023-02-21T01:41:27.880Z,119.72
2023-02-21T01:44:20.913Z,121.32
2023-02-21T01:47:06.668Z,118.88
2023-02-21T01:49:52.249Z,117.20
2023-02-21T01:52:38.559Z,115.57
2023-02-21T01:55:26.539Z,115.68
2023-02-21T01:58:11.922Z,119.63
2023-02-21T02:00:57.381Z,112.80
2023-02-21T02:03:43.028Z,116.18
2023-02-21T02:06:29.611Z,110.30
2023-02-21T02:09:15.009Z,111.80
2023-02-21T02:12:10.072Z,105.85
2023-02-21T02:14:49.308Z,110.68
2023-02-21T02:17:22.653Z,110.45
2023-02-21T02:20:24.124Z,109.40
2023-02-21T02:23:25.641Z,101.75
2023-02-21T02:26:07.868Z,107.68
2023-02-21T02:28:49.798Z,100.32
2023-02-21T02:31:38.176Z,102.30
2023-02-21T02:34:41.481Z,102.13
2023-02-21T02:37:13.543Z,100.82
2023-02-21T02:39:43.377Z,100.47
2023-02-21T02:42:13.007Z,98.05
2023-02-21T02:44:43.261Z,94.40
2023-02-21T02:47:15.700Z,94.50
2023-02-21T02:49:45.449Z,96.65
2023-02-21T02:52:13.751Z,91.28
2023-02-21T02:54:42.403Z,93.55
2023-02-21T02:57:13.235Z,91.45
2023-02-21T02:59:46.894Z,92.70
2023-02-21T03:02:37.755Z,89.60
2023-02-21T03:05:27.660Z,86.18
2023-02-21T03:07:59.830Z,85.22
2023-02-21T03:10:32.923Z,87.78
2023-02-21T03:13:04.333Z,86.80
2023-02-21T03:15:37.093Z,82.63
2023-02-21T03:18:07.144Z,84.93
2023-02-21T03:20:36.959Z,83.68
2023-02-21T03:23:05.461Z,82.75
2023-02-21T03:25:34.295Z,82.00
2023-02-21T03:28:04.748Z,81.93
2023-02-21T03:30:40.149Z,80.43
2023-02-21T03:33:09.860Z,78.55
2023-02-21T03:35:39.482Z,78.18
2023-02-21T03:38:07.958Z,74.88
2023-02-21T03:40:36.681Z,75.18
2023-02-21T03:43:07.444Z,75.00
2023-02-21T03:45:47.872Z,75.00
2023-02-21T03:48:31.002Z,73.15
2023-02-21T03:51:09.371Z,73.88
2023-02-21T03:53:38.565Z,74.05
2023-02-21T03:56:08.747Z,68.10
2023-02-21T03:58:52.321Z,69.50
2023-02-21T04:01:20.795Z,69.10
2023-02-21T04:03:49.041Z,67.70
2023-02-21T04:06:18.540Z,68.63
2023-02-21T04:08:46.650Z,66.68
2023-02-21T04:11:17.954Z,67.80
2023-02-21T04:13:46.375Z,65.07
2023-02-21T04:16:14.535Z,65.75
2023-02-21T04:18:42.860Z,62.90
2023-02-21T04:21:12.005Z,63.92
2023-02-21T04:23:41.852Z,61.55
2023-02-21T04:26:10.120Z,61.42
2023-02-21T04:28:49.816Z,62.05
2023-02-21T04:31:18.219Z,60.53
2023-02-21T04:33:46.571Z,58.90
2023-02-21T04:36:21.499Z,56.40
2023-02-21T04:38:51.774Z,58.03
2023-02-21T04:41:19.955Z,56.78
2023-02-21T04:43:48.891Z,57.13
2023-02-21T04:46:17.712Z,55.72
2023-02-21T04:48:46.047Z,54.63
2023-02-21T04:51:15.361Z,55.67
2023-02-21T04:53:43.625Z,54.67
2023-02-21T04:56:13.143Z,55.88
2023-02-21T04:58:45.159Z,52.10
2023-02-21T05:01:14.421Z,55.05
2023-02-21T05:03:42.724Z,51.42
2023-02-21T05:06:10.824Z,49.58
2023-02-21T05:08:38.857Z,50.97
2023-02-21T05:11:08.868Z,47.28
2023-02-21T05:13:38.330Z,52.30
2023-02-21T05:16:07.276Z,47.42
2023-02-21T05:18:37.607Z,47.28
2023-02-21T05:21:05.999Z,47.55
2023-02-21T05:23:38.483Z,48.30
2023-02-21T05:26:07.681Z,47.72
2023-02-21T05:28:35.942Z,45.70
2023-02-21T05:31:05.708Z,45.88
2023-02-21T05:33:34.101Z,45.05
2023-02-21T05:36:02.283Z,44.45
2023-02-21T05:38:30.329Z,44.17
2023-02-21T05:40:58.486Z,46.58
2023-02-21T05:43:28.989Z,44.00
2023-02-21T05:45:57.327Z,45.80
2023-02-21T05:48:27.014Z,41.88
2023-02-21T05:50:55.125Z,43.08
2023-02-21T05:53:23.148Z,41.13
2023-02-21T05:55:51.414Z,41.42
2023-02-21T05:58:19.456Z,43.95
2023-02-21T06:00:47.568Z,41.15
2023-02-21T06:03:15.680Z,41.25
2023-02-21T06:05:47.664Z,38.13
2023-02-21T06:08:15.779Z,39.28
2023-02-21T06:10:43.790Z,39.00
2023-02-21T06:13:11.966Z,37.50
2023-02-21T06:15:40.114Z,37.45
2023-02-21T06:18:08.265Z,37.30
2023-02-21T06:20:36.354Z,36.53
2023-02-21T06:23:05.893Z,36.47
2023-02-21T06:25:34.015Z,34.20
2023-02-21T06:28:02.104Z,35.70
2023-02-21T06:30:30.346Z,33.75
2023-02-21T06:32:58.489Z,33.40
2023-02-21T06:35:26.645Z,35.20
2023-02-21T06:37:54.740Z,35.03
2023-02-21T06:40:24.231Z,34.80
2023-02-21T06:42:52.249Z,34.17
2023-02-21T06:45:20.389Z,33.65
2023-02-21T06:47:48.450Z,32.55
2023-02-21T06:50:17.167Z,31.75
2023-02-21T06:52:45.316Z,33.53
2023-02-21T06:55:13.347Z,34.67
2023-02-21T06:57:42.870Z,38.72
2023-02-21T07:00:12.331Z,44.05
2023-02-21T07:02:40.373Z,44.03
2023-02-21T07:05:09.199Z,45.95
2023-02-21T07:07:37.244Z,45.03
2023-02-21T07:10:06.266Z,47.63
2023-02-21T07:12:34.329Z,43.92
2023-02-21T07:15:03.932Z,46.13
2023-02-21T07:17:32.086Z,47.33
2023-02-21T07:20:00.209Z,47.17
2023-02-21T07:22:28.447Z,45.75
2023-02-21T07:24:56.718Z,48.97
2023-02-21T07:27:24.826Z,45.88
2023-02-21T07:29:52.876Z,44.83
2023-02-21T07:34:50.915Z,33.60
2023-02-21T07:37:19.158Z,22.67
2023-02-21T07:39:47.229Z,22.08
2023-02-21T07:42:15.340Z,24.58
2023-02-21T07:44:48.017Z,43.75
2023-02-21T07:47:16.166Z,28.52
2023-02-21T07:49:45.601Z,25.35
2023-02-21T07:52:13.773Z,30.40
2023-02-21T07:54:41.988Z,29.65
2023-02-21T07:57:10.064Z,30.77
2023-02-21T07:59:38.174Z,52.80
2023-02-21T08:02:06.270Z,54.75
2023-02-21T08:04:34.318Z,79.85
2023-02-21T08:07:04.004Z,65.30
2023-02-21T08:09:32.175Z,71.63
2023-02-21T08:12:03.165Z,69.15
2023-02-21T08:14:31.280Z,74.43
2023-02-21T08:16:59.383Z,75.32
2023-02-21T08:19:27.515Z,64.93
2023-02-21T08:21:55.557Z,63.80
2023-02-21T08:24:25.046Z,57.72
2023-02-21T08:26:53.183Z,56.03
2023-02-21T08:29:21.221Z,48.00
2023-02-21T08:31:49.413Z,54.10
2023-02-21T08:34:17.492Z,52.10
2023-02-21T08:36:45.574Z,35.28
2023-02-21T08:39:15.141Z,40.22
2023-02-21T08:41:45.720Z,36.72
2023-02-21T08:44:16.239Z,36.30
2023-02-21T08:46:44.613Z,35.22
2023-02-21T08:49:12.701Z,38.22
2023-02-21T08:51:41.291Z,53.75
2023-02-21T08:54:09.319Z,50.00
2023-02-21T08:56:37.463Z,49.38
2023-02-21T08:59:09.540Z,60.70
2023-02-21T09:01:37.781Z,62.40
2023-02-21T09:04:06.330Z,58.55
2023-02-21T09:06:34.488Z,56.85
2023-02-21T09:09:02.802Z,53.38
2023-02-21T09:11:30.914Z,64.20
2023-02-21T09:13:58.999Z,60.72
2023-02-21T09:16:28.709Z,62.25
2023-02-21T09:18:59.206Z,51.47
2023-02-21T09:21:27.608Z,57.28
2023-02-21T09:23:56.769Z,54.60
2023-02-21T09:26:31.948Z,56.30
2023-02-21T09:29:00.105Z,57.38
2023-02-21T09:31:29.628Z,59.40
2023-02-21T09:33:57.865Z,59.83
2023-02-21T09:36:27.118Z,52.40
2023-02-21T09:38:55.225Z,53.88
2023-02-21T09:41:23.389Z,53.97
2023-02-21T09:43:52.912Z,60.08
2023-02-21T09:46:24.252Z,57.25
2023-02-21T09:48:53.857Z,55.85
2023-02-21T09:51:21.955Z,56.58
2023-02-21T09:53:50.172Z,55.75
2023-02-21T09:56:24.784Z,61.33
2023-02-21T09:58:52.916Z,58.05
2023-02-21T10:01:24.869Z,53.17
2023-02-21T10:03:56.842Z,56.65
2023-02-21T10:06:31.531Z,57.25
2023-02-21T10:09:02.141Z,55.83
2023-02-21T10:11:35.593Z,56.05
2023-02-21T10:14:07.646Z,52.70
2023-02-21T10:16:38.476Z,60.67
2023-02-21T10:19:11.132Z,57.20
2023-02-21T10:21:41.048Z,50.13
2023-02-21T10:24:13.743Z,53.55
2023-02-21T10:26:43.322Z,53.38
2023-02-21T10:29:19.520Z,54.75
2023-02-21T10:31:48.704Z,53.22
2023-02-21T10:34:23.112Z,51.65
2023-02-21T10:36:51.576Z,50.92
2023-02-21T10:39:20.687Z,48.60
2023-02-21T10:41:48.837Z,52.45
2023-02-21T10:44:18.626Z,47.92
2023-02-21T10:46:48.964Z,50.03
2023-02-21T10:49:34.734Z,50.67
2023-02-21T10:52:11.909Z,51.45
2023-02-21T10:54:40.215Z,48.60
2023-02-21T10:57:09.085Z,48.08
2023-02-21T10:59:39.079Z,50.53
2023-02-21T11:02:36.762Z,47.03
2023-02-21T11:05:14.752Z,50.47
2023-02-21T11:07:43.624Z,48.95
2023-02-21T11:10:28.203Z,47.20
2023-02-21T11:13:07.938Z,47.38
2023-02-21T11:15:36.606Z,49.92
2023-02-21T11:18:16.569Z,47.92
2023-02-21T11:20:47.342Z,48.50
2023-02-21T11:23:23.523Z,48.40
2023-02-21T11:25:53.332Z,50.45
2023-02-21T11:28:22.440Z,52.38
2023-02-21T11:30:52.218Z,51.45
2023-02-21T11:33:21.288Z,48.13
2023-02-21T11:35:51.561Z,45.47
2023-02-21T11:38:35.986Z,47.83
2023-02-21T11:41:04.421Z,51.22
2023-02-21T11:43:32.772Z,56.97
2023-02-21T11:46:06.661Z,45.60
2023-02-21T11:48:37.101Z,45.80
2023-02-21T11:51:09.821Z,47.90
2023-02-21T11:53:40.946Z,45.13
2023-02-21T11:56:16.194Z,43.00
2023-02-21T11:58:46.375Z,51.20
2023-02-21T12:01:16.391Z,44.03
2023-02-21T12:03:54.865Z,45.45
2023-02-21T12:06:29.112Z,47.42
2023-02-21T12:08:59.230Z,43.53
2023-02-21T12:11:39.385Z,42.17
2023-02-21T12:14:31.649Z,42.60
2023-02-21T12:17:06.122Z,41.38
2023-02-21T12:19:47.110Z,43.72
2023-02-21T12:22:24.453Z,43.35
2023-02-21T12:25:02.959Z,45.03
2023-02-21T12:27:35.500Z,42.60
2023-02-21T12:30:21.724Z,43.17
2023-02-21T12:32:51.540Z,44.33
2023-02-21T12:35:41.698Z,44.75
2023-02-21T12:38:13.443Z,47.13
2023-02-21T12:40:46.029Z,45.13
2023-02-21T12:43:24.535Z,42.92
2023-02-21T12:45:59.921Z,42.03
2023-02-21T12:48:31.295Z,50.00
2023-02-21T12:51:03.637Z,44.65
2023-02-21T12:53:36.536Z,42.15
2023-02-21T12:56:07.722Z,42.60
2023-02-21T12:58:37.736Z,44.47
2023-02-21T13:01:12.116Z,41.38
2023-02-21T13:03:50.089Z,46.42
2023-02-21T13:06:21.254Z,37.38
2023-02-21T13:08:57.780Z,37.25
2023-02-21T13:11:28.383Z,36.38
2023-02-21T13:13:56.683Z,33.70
2023-02-21T13:16:25.023Z,35.08
2023-02-21T13:18:59.420Z,35.47
2023-02-21T13:21:35.107Z,34.20
2023-02-21T13:24:33.787Z,31.20
2023-02-21T13:27:29.396Z,31.48
2023-02-21T13:30:02.770Z,27.55
2023-02-21T13:32:31.099Z,30.38
2023-02-21T13:35:01.488Z,27.45
2023-02-21T13:37:30.429Z,29.08
2023-02-21T13:40:07.604Z,25.88
2023-02-21T13:42:37.732Z,28.35
2023-02-21T13:45:14.442Z,28.08
2023-02-21T13:48:27.424Z,28.27
2023-02-21T13:50:57.096Z,27.15
2023-02-21T13:53:33.437Z,28.17
2023-02-21T13:56:17.313Z,34.55
2023-02-21T13:58:46.232Z,39.80
2023-02-21T14:01:48.288Z,28.08
2023-02-21T14:04:51.661Z,30.70
2023-02-21T14:07:20.391Z,32.97
2023-02-21T14:09:48.828Z,41.42
2023-02-21T14:12:18.452Z,45.40
2023-02-21T14:14:52.657Z,57.47
2023-02-21T14:17:21.126Z,56.40
2023-02-21T14:19:50.417Z,63.50
2023-02-21T14:22:20.334Z,65.20
2023-02-21T14:24:49.600Z,61.30
2023-02-21T14:27:37.805Z,63.85
2023-02-21T14:30:39.014Z,60.67
2023-02-21T14:33:25.543Z,62.35
2023-02-21T14:36:02.356Z,59.97
2023-02-21T14:38:31.500Z,63.15
2023-02-21T14:41:09.179Z,58.40
2023-02-21T14:43:55.991Z,57.28
2023-02-21T14:46:48.686Z,58.10
2023-02-21T14:49:42.524Z,57.10
2023-02-21T14:52:49.614Z,59.80
2023-02-21T14:55:41.386Z,61.13
2023-02-21T14:58:50.600Z,59.67
2023-02-21T15:01:33.468Z,59.45
2023-02-21T15:04:03.494Z,59.13
2023-02-21T15:06:31.552Z,57.88
2023-02-21T15:08:59.680Z,63.72
2023-02-21T15:11:28.930Z,57.25
2023-02-21T15:14:13.681Z,58.80
2023-02-21T15:16:45.609Z,56.22
2023-02-21T15:19:22.007Z,58.63
2023-02-21T15:21:50.185Z,55.88
2023-02-21T15:24:18.547Z,56.78
2023-02-21T15:26:46.643Z,49.97
2023-02-21T15:29:15.983Z,51.83
2023-02-21T15:31:46.817Z,54.38
2023-02-21T15:34:18.405Z,53.72
2023-02-21T15:36:46.628Z,62.53
2023-02-21T15:39:17.484Z,56.72
2023-02-21T15:41:46.547Z,57.53
2023-02-21T15:44:16.070Z,55.92
2023-02-21T15:46:47.036Z,56.33
2023-02-21T15:49:17.870Z,57.88
2023-02-21T15:51:45.996Z,58.03
2023-02-21T15:54:25.815Z,56.30
2023-02-21T15:57:09.699Z,57.42
2023-02-21T15:59:38.375Z,56.97
2023-02-21T16:02:17.568Z,59.05
2023-02-21T16:04:46.463Z,63.20
2023-02-21T16:07:20.954Z,61.97
2023-02-21T16:09:49.817Z,56.50
2023-02-21T16:12:27.937Z,58.80
2023-02-21T16:14:59.134Z,56.03
2023-02-21T16:17:31.527Z,56.60
2023-02-21T16:20:00.559Z,57.80
2023-02-21T16:22:33.019Z,59.65
2023-02-21T16:25:16.922Z,53.47
2023-02-21T16:27:46.122Z,54.60
2023-02-21T16:30:15.667Z,131.35
2023-02-21T16:32:46.625Z,240.07
2023-02-21T16:35:16.062Z,289.58
2023-02-21T16:37:44.091Z,244.75
2023-02-21T16:40:16.632Z,210.90
2023-02-21T16:42:44.712Z,202.80
2023-02-21T16:45:12.776Z,186.18
2023-02-21T16:47:43.423Z,176.57
2023-02-21T16:50:20.460Z,177.07
2023-02-21T16:52:48.662Z,174.70
2023-02-21T16:55:18.136Z,159.10
2023-02-21T16:57:48.468Z,156.35
2023-02-21T17:00:17.642Z,170.02
2023-02-21T17:02:45.705Z,217.02
2023-02-21T17:05:13.845Z,227.98
2023-02-21T17:07:43.303Z,217.02
2023-02-21T17:10:11.835Z,212.15
2023-02-21T17:12:39.885Z,192.05
2023-02-21T17:15:08.578Z,190.07
2023-02-21T17:17:36.701Z,181.75
2023-02-21T17:20:04.836Z,182.77
2023-02-21T17:22:32.966Z,178.15
2023-02-21T17:25:02.435Z,169.45
2023-02-21T17:27:30.550Z,173.95
2023-02-21T17:29:58.663Z,162.32
2023-02-21T17:32:27.171Z,159.45
2023-02-21T17:34:55.273Z,158.98
2023-02-21T17:37:23.387Z,152.77
2023-02-21T17:39:53.744Z,150.05
2023-02-21T17:42:23.343Z,148.40
2023-02-21T17:44:52.087Z,145.07
2023-02-21T17:47:20.313Z,141.15
2023-02-21T17:49:48.891Z,140.50
2023-02-21T17:52:17.185Z,143.52
2023-02-21T17:54:45.266Z,132.90
2023-02-21T17:57:13.517Z,131.90
2023-02-21T17:59:43.006Z,150.25
2023-02-21T18:02:11.763Z,196.68
2023-02-21T18:04:39.832Z,209.32
2023-02-21T18:07:10.137Z,193.38
2023-02-21T18:09:39.598Z,189.23
2023-02-21T18:12:08.541Z,180.93
2023-02-21T18:14:36.785Z,170.18
2023-02-21T18:17:06.209Z,176.73
2023-02-21T18:19:34.271Z,162.48
2023-02-21T18:22:05.255Z,165.90
2023-02-21T18:24:33.386Z,153.73
2023-02-21T18:27:01.474Z,155.45
2023-02-21T18:29:31.281Z,146.43
2023-02-21T18:31:59.587Z,144.40
2023-02-21T18:34:29.361Z,145.93
2023-02-21T18:36:57.593Z,135.52
2023-02-21T18:39:26.255Z,145.38
2023-02-21T18:41:54.472Z,135.05
2023-02-21T18:44:22.501Z,136.13
2023-02-21T18:46:51.798Z,132.80
2023-02-21T18:49:20.110Z,135.00
2023-02-21T18:51:49.730Z,123.35
2023-02-21T18:54:18.116Z,124.85
2023-02-21T18:56:50.078Z,123.90
2023-02-21T18:59:18.712Z,124.03
2023-02-21T19:01:49.195Z,160.23
2023-02-21T19:04:17.392Z,248.07
2023-02-21T19:06:45.573Z,212.30
2023-02-21T19:09:15.058Z,193.10
2023-02-21T19:11:43.106Z,206.20
2023-02-21T19:14:11.261Z,332.35
2023-02-21T19:16:39.377Z,387.38
2023-02-21T19:19:07.596Z,362.80
2023-02-21T19:21:35.728Z,336.73
2023-02-21T19:24:04.268Z,313.92
2023-02-21T19:26:33.773Z,305.10
2023-02-21T19:29:01.909Z,300.35
2023-02-21T19:31:30.040Z,291.15
2023-02-21T19:33:58.215Z,287.20
2023-02-21T19:36:26.315Z,278.60
2023-02-21T19:38:54.401Z,270.17
2023-02-21T19:41:22.461Z,268.60
2023-02-21T19:43:52.018Z,256.23
2023-02-21T19:46:21.793Z,256.33
2023-02-21T19:48:50.056Z,443.85
2023-02-21T19:51:18.878Z,439.45
2023-02-21T19:53:46.936Z,449.92
2023-02-21T19:56:15.080Z,408.92
2023-02-21T19:58:45.171Z,398.63
2023-02-21T20:01:15.090Z,383.70
2023-02-21T20:03:44.414Z,376.55
2023-02-21T20:06:12.581Z,364.58
2023-02-21T20:08:43.998Z,374.83
2023-02-21T20:11:12.074Z,460.02
2023-02-21T20:13:42.175Z,450.92
2023-02-21T20:16:10.492Z,436.52
2023-02-21T20:18:39.995Z,413.45
2023-02-21T20:21:08.068Z,449.73
2023-02-21T20:23:36.132Z,517.83
2023-02-21T20:26:04.357Z,513.03
2023-02-21T20:28:33.580Z,498.50
2023-02-21T20:31:01.806Z,477.30
2023-02-21T20:33:29.910Z,473.85
2023-02-21T20:35:59.604Z,459.65
2023-02-21T20:38:27.735Z,466.52
2023-02-21T20:40:55.833Z,476.35
2023-02-21T20:43:24.047Z,538.92
2023-02-21T20:45:52.222Z,543.15
2023-02-21T20:48:20.385Z,527.03
2023-02-21T20:50:49.818Z,513.83
2023-02-21T20:53:20.026Z,498.17
2023-02-21T20:55:48.369Z,500.70
2023-02-21T20:58:16.464Z,492.98
2023-02-21T21:00:44.596Z,488.20
2023-02-21T21:03:15.286Z,449.52
2023-02-21T21:05:43.708Z,455.38
2023-02-21T21:08:12.101Z,453.85
2023-02-21T21:10:42.377Z,443.15
2023-02-21T21:13:10.885Z,437.42
2023-02-21T21:15:39.111Z,431.90
2023-02-21T21:18:10.188Z,427.00
2023-02-21T21:20:39.762Z,422.73
2023-02-21T21:23:07.932Z,420.92
2023-02-21T21:25:36.074Z,419.65
2023-02-21T21:28:05.632Z,411.30
2023-02-21T21:30:33.792Z,408.65
2023-02-21T21:33:02.554Z,400.60
2023-02-21T21:35:30.964Z,412.50
2023-02-21T21:37:59.392Z,390.27
2023-02-21T21:40:28.939Z,392.80
2023-02-21T21:42:57.191Z,391.13
2023-02-21T21:45:27.807Z,378.58
2023-02-21T21:47:58.802Z,384.77
2023-02-21T21:50:27.042Z,380.90
2023-02-21T21:52:57.496Z,363.70
2023-02-21T21:55:26.717Z,372.25
2023-02-21T21:57:54.862Z,363.98
2023-02-21T22:00:24.477Z,364.08
2023-02-21T22:02:57.411Z,351.45
2023-02-21T22:05:25.878Z,361.55
2023-02-21T22:07:53.999Z,350.77
2023-02-21T22:10:22.329Z,344.30
2023-02-21T22:12:50.988Z,344.00
2023-02-21T22:15:20.245Z,330.52
2023-02-21T22:17:48.428Z,328.15
2023-02-21T22:20:19.852Z,325.77
2023-02-21T22:22:49.055Z,325.90
2023-02-21T22:25:17.371Z,312.42
2023-02-21T22:27:45.613Z,315.17
2023-02-21T22:30:15.416Z,318.77
2023-02-21T22:32:43.759Z,310.58
2023-02-21T22:35:18.172Z,310.88
2023-02-21T22:37:48.449Z,313.52
2023-02-21T22:40:24.252Z,300.35
2023-02-21T22:42:52.778Z,293.25
2023-02-21T22:45:21.935Z,286.77
2023-02-21T22:47:50.284Z,289.17
2023-02-21T22:50:20.329Z,282.85
2023-02-21T22:52:52.153Z,279.00
2023-02-21T22:55:20.323Z,274.63
2023-02-21T22:57:48.349Z,279.85
2023-02-21T23:00:20.319Z,274.75
2023-02-21T23:02:48.594Z,263.67
2023-02-21T23:05:19.490Z,261.08
2023-02-21T23:07:49.068Z,264.15
2023-02-21T23:10:23.712Z,261.80
2023-02-21T23:12:52.604Z,251.45
2023-02-21T23:15:20.719Z,248.68
2023-02-21T23:17:49.866Z,252.90
2023-02-21T23:20:22.253Z,240.50
2023-02-21T23:22:51.538Z,237.50
2023-02-21T23:25:23.025Z,238.15
2023-02-21T23:27:51.902Z,237.30
2023-02-21T23:30:20.912Z,234.35
2023-02-21T23:32:50.155Z,225.13
2023-02-21T23:35:18.248Z,221.85
2023-02-21T23:37:46.676Z,221.93
2023-02-21T23:40:16.641Z,212.88
2023-02-21T23:42:47.425Z,216.52
2023-02-21T23:45:15.540Z,212.43
2023-02-21T23:47:43.605Z,216.25
2023-02-21T23:50:17.412Z,206.98
2023-02-21T23:52:48.066Z,208.30
2023-02-21T23:55:16.736Z,199.85
2023-02-21T23:57:46.743Z,202.00
